sensor_id;sensor_type;location;lat;lon;timestamp;temperature;humidity
17421;DHT22;8828;48.800;9.540;2022-12-18T00:00:06;-5.50;99.90
17421;DHT22;8828;48.800;9.540;2022-12-18T00:02:35;-5.50;99.90
17421;DHT22;8828;48.800;9.540;2022-12-18T00:05:04;-5.60;99.90
17421;DHT22;8828;48.800;9.540;2022-12-18T00:07:32;-5.60;99.90
17421;DHT22;8828;48.800;9.540;2022-12-18T00:10:00;-5.60;99.90
17421;DHT22;8828;48.800;9.540;2022-12-18T00:12:28;-5.60;99.90
17421;DHT22;8828;48.800;9.540;2022-12-18T00:14:56;-5.60;99.90
17421;DHT22;8828;48.800;9.540;2022-12-18T00:17:25;-5.60;99.90
17421;DHT22;8828;48.800;9.540;2022-12-18T00:19:53;-5.60;99.90
17421;DHT22;8828;48.800;9.540;2022-12-18T00:22:21;-5.60;99.90
17421;DHT22;8828;48.800;9.540;2022-12-18T00:24:49;-5.60;99.90
17421;DHT22;8828;48.800;9.540;2022-12-18T00:27:16;-5.60;99.90
17421;DHT22;8828;48.800;9.540;2022-12-18T00:29:44;-5.60;99.90
17421;DHT22;8828;48.800;9.540;2022-12-18T00:32:12;-5.60;99.90
17421;DHT22;8828;48.800;9.540;2022-12-18T00:34:41;-5.60;99.90
17421;DHT22;8828;48.800;9.540;2022-12-18T00:37:10;-5.60;99.90
17421;DHT22;8828;48.800;9.540;2022-12-18T00:39:45;-5.60;99.90
17421;DHT22;8828;48.800;9.540;2022-12-18T00:42:15;-5.70;99.90
17421;DHT22;8828;48.800;9.540;2022-12-18T00:45:00;-5.70;99.90
17421;DHT22;8828;48.800;9.540;2022-12-18T00:47:34;-5.70;99.90
17421;DHT22;8828;48.800;9.540;2022-12-18T00:50:04;-5.70;99.90
17421;DHT22;8828;48.800;9.540;2022-12-18T00:52:33;-5.70;99.90
17421;DHT22;8828;48.800;9.540;2022-12-18T00:55:01;-5.70;99.90
17421;DHT22;8828;48.800;9.540;2022-12-18T00:57:32;-5.70;99.90
17421;DHT22;8828;48.800;9.540;2022-12-18T01:00:00;-5.70;99.90
17421;DHT22;8828;48.800;9.540;2022-12-18T01:02:28;-5.70;99.90
17421;DHT22;8828;48.800;9.540;2022-12-18T01:04:56;-5.80;99.90
17421;DHT22;8828;48.800;9.540;2022-12-18T01:07:25;-5.80;99.90
17421;DHT22;8828;48.800;9.540;2022-12-18T01:09:53;-5.80;99.90
17421;DHT22;8828;48.800;9.540;2022-12-18T01:12:21;-5.80;99.90
17421;DHT22;8828;48.800;9.540;2022-12-18T01:14:49;-5.80;99.90
17421;DHT22;8828;48.800;9.540;2022-12-18T01:17:17;-5.90;99.90
17421;DHT22;8828;48.800;9.540;2022-12-18T01:19:45;-5.90;99.90
17421;DHT22;8828;48.800;9.540;2022-12-18T01:22:13;-5.90;99.90
17421;DHT22;8828;48.800;9.540;2022-12-18T01:24:43;-6.00;99.90
17421;DHT22;8828;48.800;9.540;2022-12-18T01:27:10;-5.90;99.90
17421;DHT22;8828;48.800;9.540;2022-12-18T01:29:39;-6.00;99.90
17421;DHT22;8828;48.800;9.540;2022-12-18T01:32:08;-6.00;99.90
17421;DHT22;8828;48.800;9.540;2022-12-18T01:34:36;-6.00;99.90
17421;DHT22;8828;48.800;9.540;2022-12-18T01:37:05;-6.10;99.90
17421;DHT22;8828;48.800;9.540;2022-12-18T01:39:33;-6.10;99.90
17421;DHT22;8828;48.800;9.540;2022-12-18T01:42:05;-6.10;99.90
17421;DHT22;8828;48.800;9.540;2022-12-18T01:44:58;-6.10;99.90
17421;DHT22;8828;48.800;9.540;2022-12-18T01:47:30;-6.10;99.90
17421;DHT22;8828;48.800;9.540;2022-12-18T01:50:04;-6.10;99.90
17421;DHT22;8828;48.800;9.540;2022-12-18T01:52:33;-6.20;99.90
17421;DHT22;8828;48.800;9.540;2022-12-18T01:55:03;-6.10;99.90
17421;DHT22;8828;48.800;9.540;2022-12-18T01:57:34;-6.20;99.90
17421;DHT22;8828;48.800;9.540;2022-12-18T02:00:06;-6.20;99.90
17421;DHT22;8828;48.800;9.540;2022-12-18T02:02:35;-6.20;99.90
17421;DHT22;8828;48.800;9.540;2022-12-18T02:05:04;-6.20;99.90
17421;DHT22;8828;48.800;9.540;2022-12-18T02:07:41;-6.20;99.90
17421;DHT22;8828;48.800;9.540;2022-12-18T02:10:17;-6.20;99.90
17421;DHT22;8828;48.800;9.540;2022-12-18T02:12:54;-6.30;99.90
17421;DHT22;8828;48.800;9.540;2022-12-18T02:15:28;-6.20;99.90
17421;DHT22;8828;48.800;9.540;2022-12-18T02:18:02;-6.20;99.90
17421;DHT22;8828;48.800;9.540;2022-12-18T02:20:35;-6.20;99.90
17421;DHT22;8828;48.800;9.540;2022-12-18T02:23:14;-6.20;99.90
17421;DHT22;8828;48.800;9.540;2022-12-18T02:26:06;-6.10;99.90
17421;DHT22;8828;48.800;9.540;2022-12-18T02:28:38;-6.20;99.90
17421;DHT22;8828;48.800;9.540;2022-12-18T02:31:11;-6.10;99.90
17421;DHT22;8828;48.800;9.540;2022-12-18T02:33:41;-6.10;99.90
17421;DHT22;8828;48.800;9.540;2022-12-18T02:36:11;-6.10;99.90
17421;DHT22;8828;48.800;9.540;2022-12-18T02:38:40;-6.10;99.90
17421;DHT22;8828;48.800;9.540;2022-12-18T02:41:10;-6.20;99.90
17421;DHT22;8828;48.800;9.540;2022-12-18T02:43:39;-6.10;99.90
17421;DHT22;8828;48.800;9.540;2022-12-18T02:46:26;-6.20;99.90
17421;DHT22;8828;48.800;9.540;2022-12-18T02:49:01;-6.20;99.90
17421;DHT22;8828;48.800;9.540;2022-12-18T02:51:34;-6.20;99.90
17421;DHT22;8828;48.800;9.540;2022-12-18T02:54:09;-6.20;99.90
17421;DHT22;8828;48.800;9.540;2022-12-18T02:56:46;-6.20;99.90
17421;DHT22;8828;48.800;9.540;2022-12-18T02:59:19;-6.10;99.90
17421;DHT22;8828;48.800;9.540;2022-12-18T03:01:51;-6.10;99.90
17421;DHT22;8828;48.800;9.540;2022-12-18T03:04:26;-6.10;99.90
17421;DHT22;8828;48.800;9.540;2022-12-18T03:06:59;-6.10;99.90
17421;DHT22;8828;48.800;9.540;2022-12-18T03:09:32;-6.10;99.90
17421;DHT22;8828;48.800;9.540;2022-12-18T03:12:08;-6.10;99.90
17421;DHT22;8828;48.800;9.540;2022-12-18T03:14:55;-6.20;99.90
17421;DHT22;8828;48.800;9.540;2022-12-18T03:17:27;-6.20;99.90
17421;DHT22;8828;48.800;9.540;2022-12-18T03:19:59;-6.10;99.90
17421;DHT22;8828;48.800;9.540;2022-12-18T03:22:30;-6.20;99.90
17421;DHT22;8828;48.800;9.540;2022-12-18T03:25:01;-6.20;99.90
17421;DHT22;8828;48.800;9.540;2022-12-18T03:27:33;-6.20;99.90
17421;DHT22;8828;48.800;9.540;2022-12-18T03:30:05;-6.20;99.90
17421;DHT22;8828;48.800;9.540;2022-12-18T03:32:39;-6.20;99.90
17421;DHT22;8828;48.800;9.540;2022-12-18T03:35:10;-6.20;99.90
17421;DHT22;8828;48.800;9.540;2022-12-18T03:37:40;-6.20;99.90
17421;DHT22;8828;48.800;9.540;2022-12-18T03:40:09;-6.20;99.90
17421;DHT22;8828;48.800;9.540;2022-12-18T03:42:45;-6.20;99.90
17421;DHT22;8828;48.800;9.540;2022-12-18T03:45:19;-6.20;99.90
17421;DHT22;8828;48.800;9.540;2022-12-18T03:47:57;-6.20;99.90
17421;DHT22;8828;48.800;9.540;2022-12-18T03:50:33;-6.20;99.90
17421;DHT22;8828;48.800;9.540;2022-12-18T03:53:14;-6.10;99.90
17421;DHT22;8828;48.800;9.540;2022-12-18T03:55:45;-6.10;99.90
17421;DHT22;8828;48.800;9.540;2022-12-18T03:58:19;-6.10;99.90
17421;DHT22;8828;48.800;9.540;2022-12-18T04:00:48;-6.10;99.90
17421;DHT22;8828;48.800;9.540;2022-12-18T04:03:18;-6.10;99.90
17421;DHT22;8828;48.800;9.540;2022-12-18T04:05:54;-6.10;99.90
17421;DHT22;8828;48.800;9.540;2022-12-18T04:08:23;-6.10;99.90
17421;DHT22;8828;48.800;9.540;2022-12-18T04:10:52;-6.10;99.90
17421;DHT22;8828;48.800;9.540;2022-12-18T04:13:28;-6.10;99.90
17421;DHT22;8828;48.800;9.540;2022-12-18T04:15:56;-6.10;99.90
17421;DHT22;8828;48.800;9.540;2022-12-18T04:18:24;-6.10;99.90
17421;DHT22;8828;48.800;9.540;2022-12-18T04:20:53;-6.10;99.90
17421;DHT22;8828;48.800;9.540;2022-12-18T04:23:21;-6.10;99.90
17421;DHT22;8828;48.800;9.540;2022-12-18T04:25:49;-6.10;99.90
17421;DHT22;8828;48.800;9.540;2022-12-18T04:28:17;-6.20;99.90
17421;DHT22;8828;48.800;9.540;2022-12-18T04:30:47;-6.10;99.90
17421;DHT22;8828;48.800;9.540;2022-12-18T04:33:18;-6.10;99.90
17421;DHT22;8828;48.800;9.540;2022-12-18T04:35:46;-6.10;99.90
17421;DHT22;8828;48.800;9.540;2022-12-18T04:38:14;-6.00;99.90
17421;DHT22;8828;48.800;9.540;2022-12-18T04:40:42;-5.90;99.90
17421;DHT22;8828;48.800;9.540;2022-12-18T04:43:10;-5.90;99.90
17421;DHT22;8828;48.800;9.540;2022-12-18T04:45:39;-5.90;99.90
17421;DHT22;8828;48.800;9.540;2022-12-18T04:48:08;-5.80;99.90
17421;DHT22;8828;48.800;9.540;2022-12-18T04:50:37;-5.80;99.90
17421;DHT22;8828;48.800;9.540;2022-12-18T04:53:06;-5.70;99.90
17421;DHT22;8828;48.800;9.540;2022-12-18T04:55:35;-5.70;99.90
17421;DHT22;8828;48.800;9.540;2022-12-18T04:58:04;-5.60;99.90
17421;DHT22;8828;48.800;9.540;2022-12-18T05:00:32;-5.60;99.90
17421;DHT22;8828;48.800;9.540;2022-12-18T05:03:01;-5.50;99.90
17421;DHT22;8828;48.800;9.540;2022-12-18T05:05:31;-5.40;99.90
17421;DHT22;8828;48.800;9.540;2022-12-18T05:07:59;-5.40;99.90
17421;DHT22;8828;48.800;9.540;2022-12-18T05:10:29;-5.30;99.90
17421;DHT22;8828;48.800;9.540;2022-12-18T05:13:04;-5.30;99.90
17421;DHT22;8828;48.800;9.540;2022-12-18T05:15:33;-5.20;99.90
17421;DHT22;8828;48.800;9.540;2022-12-18T05:18:01;-5.10;99.90
17421;DHT22;8828;48.800;9.540;2022-12-18T05:20:31;-5.10;99.90
17421;DHT22;8828;48.800;9.540;2022-12-18T05:22:59;-5.00;99.90
17421;DHT22;8828;48.800;9.540;2022-12-18T05:25:27;-5.00;99.90
17421;DHT22;8828;48.800;9.540;2022-12-18T05:27:55;-5.00;99.90
17421;DHT22;8828;48.800;9.540;2022-12-18T05:30:23;-5.00;99.90
17421;DHT22;8828;48.800;9.540;2022-12-18T05:32:51;-5.00;99.90
17421;DHT22;8828;48.800;9.540;2022-12-18T05:35:19;-5.00;99.90
17421;DHT22;8828;48.800;9.540;2022-12-18T05:37:49;-4.90;99.90
17421;DHT22;8828;48.800;9.540;2022-12-18T05:40:17;-4.90;99.90
17421;DHT22;8828;48.800;9.540;2022-12-18T05:42:45;-4.90;99.90
17421;DHT22;8828;48.800;9.540;2022-12-18T05:45:13;-4.90;99.90
17421;DHT22;8828;48.800;9.540;2022-12-18T05:47:41;-4.90;99.90
17421;DHT22;8828;48.800;9.540;2022-12-18T05:50:09;-4.90;99.90
17421;DHT22;8828;48.800;9.540;2022-12-18T05:52:37;-4.90;99.90
17421;DHT22;8828;48.800;9.540;2022-12-18T05:55:06;-4.90;99.90
17421;DHT22;8828;48.800;9.540;2022-12-18T05:57:34;-4.90;99.90
17421;DHT22;8828;48.800;9.540;2022-12-18T06:00:03;-4.90;99.90
17421;DHT22;8828;48.800;9.540;2022-12-18T06:02:31;-4.80;99.90
17421;DHT22;8828;48.800;9.540;2022-12-18T06:04:59;-4.80;99.90
17421;DHT22;8828;48.800;9.540;2022-12-18T06:07:27;-4.80;99.90
17421;DHT22;8828;48.800;9.540;2022-12-18T06:09:55;-4.70;99.90
17421;DHT22;8828;48.800;9.540;2022-12-18T06:12:24;-4.70;99.90
17421;DHT22;8828;48.800;9.540;2022-12-18T06:14:52;-4.70;99.90
17421;DHT22;8828;48.800;9.540;2022-12-18T06:17:20;-4.70;99.90
17421;DHT22;8828;48.800;9.540;2022-12-18T06:19:48;-4.70;99.90
17421;DHT22;8828;48.800;9.540;2022-12-18T06:22:16;-4.60;99.90
17421;DHT22;8828;48.800;9.540;2022-12-18T06:24:44;-4.60;99.90
17421;DHT22;8828;48.800;9.540;2022-12-18T06:27:13;-4.70;99.90
17421;DHT22;8828;48.800;9.540;2022-12-18T06:29:42;-4.60;99.90
17421;DHT22;8828;48.800;9.540;2022-12-18T06:32:10;-4.70;99.90
17421;DHT22;8828;48.800;9.540;2022-12-18T06:34:38;-4.60;99.90
17421;DHT22;8828;48.800;9.540;2022-12-18T06:37:06;-4.60;99.90
17421;DHT22;8828;48.800;9.540;2022-12-18T06:39:34;-4.70;99.90
17421;DHT22;8828;48.800;9.540;2022-12-18T06:42:03;-4.70;99.90
17421;DHT22;8828;48.800;9.540;2022-12-18T06:44:31;-4.70;99.90
17421;DHT22;8828;48.800;9.540;2022-12-18T06:47:00;-4.70;99.90
17421;DHT22;8828;48.800;9.540;2022-12-18T06:49:28;-4.70;99.90
17421;DHT22;8828;48.800;9.540;2022-12-18T06:51:56;-4.70;99.90
17421;DHT22;8828;48.800;9.540;2022-12-18T06:54:24;-4.70;99.90
17421;DHT22;8828;48.800;9.540;2022-12-18T06:56:52;-4.70;99.90
17421;DHT22;8828;48.800;9.540;2022-12-18T06:59:20;-4.70;99.90
17421;DHT22;8828;48.800;9.540;2022-12-18T07:01:48;-4.60;99.90
17421;DHT22;8828;48.800;9.540;2022-12-18T07:04:18;-4.60;99.90
17421;DHT22;8828;48.800;9.540;2022-12-18T07:06:46;-4.70;99.90
17421;DHT22;8828;48.800;9.540;2022-12-18T07:09:14;-4.70;99.90
17421;DHT22;8828;48.800;9.540;2022-12-18T07:11:42;-4.70;99.90
17421;DHT22;8828;48.800;9.540;2022-12-18T07:14:10;-4.60;99.90
17421;DHT22;8828;48.800;9.540;2022-12-18T07:16:38;-4.60;99.90
17421;DHT22;8828;48.800;9.540;2022-12-18T07:19:05;-4.60;99.90
17421;DHT22;8828;48.800;9.540;2022-12-18T07:21:35;-4.60;99.90
17421;DHT22;8828;48.800;9.540;2022-12-18T07:24:04;-4.60;99.90
17421;DHT22;8828;48.800;9.540;2022-12-18T07:26:32;-4.60;99.90
17421;DHT22;8828;48.800;9.540;2022-12-18T07:29:00;-4.60;99.90
17421;DHT22;8828;48.800;9.540;2022-12-18T07:31:28;-4.60;99.90
17421;DHT22;8828;48.800;9.540;2022-12-18T07:33:56;-4.50;99.90
17421;DHT22;8828;48.800;9.540;2022-12-18T07:36:25;-4.50;99.90
17421;DHT22;8828;48.800;9.540;2022-12-18T07:38:54;-4.50;99.90
17421;DHT22;8828;48.800;9.540;2022-12-18T07:41:22;-4.50;99.90
17421;DHT22;8828;48.800;9.540;2022-12-18T07:43:50;-4.50;99.90
17421;DHT22;8828;48.800;9.540;2022-12-18T07:46:19;-4.50;99.90
17421;DHT22;8828;48.800;9.540;2022-12-18T07:48:47;-4.50;99.90
17421;DHT22;8828;48.800;9.540;2022-12-18T07:51:16;-4.60;99.90
17421;DHT22;8828;48.800;9.540;2022-12-18T07:53:45;-4.60;99.90
17421;DHT22;8828;48.800;9.540;2022-12-18T07:56:20;-4.50;99.90
17421;DHT22;8828;48.800;9.540;2022-12-18T07:58:54;-4.50;99.90
17421;DHT22;8828;48.800;9.540;2022-12-18T08:01:22;-4.50;99.90
17421;DHT22;8828;48.800;9.540;2022-12-18T08:03:51;-4.40;99.90
17421;DHT22;8828;48.800;9.540;2022-12-18T08:06:19;-4.30;99.90
17421;DHT22;8828;48.800;9.540;2022-12-18T08:08:51;-4.30;99.90
17421;DHT22;8828;48.800;9.540;2022-12-18T08:11:20;-4.20;99.90
17421;DHT22;8828;48.800;9.540;2022-12-18T08:13:48;-4.10;99.90
17421;DHT22;8828;48.800;9.540;2022-12-18T08:16:16;-4.10;99.90
17421;DHT22;8828;48.800;9.540;2022-12-18T08:18:45;-4.10;99.90
17421;DHT22;8828;48.800;9.540;2022-12-18T08:21:16;-4.00;99.90
17421;DHT22;8828;48.800;9.540;2022-12-18T08:23:46;-4.00;99.90
17421;DHT22;8828;48.800;9.540;2022-12-18T08:26:16;-3.90;99.90
17421;DHT22;8828;48.800;9.540;2022-12-18T08:28:45;-3.80;99.90
17421;DHT22;8828;48.800;9.540;2022-12-18T08:31:14;-3.70;99.90
17421;DHT22;8828;48.800;9.540;2022-12-18T08:33:42;-3.70;99.90
17421;DHT22;8828;48.800;9.540;2022-12-18T08:36:11;-3.60;99.90
17421;DHT22;8828;48.800;9.540;2022-12-18T08:38:39;-3.50;99.90
17421;DHT22;8828;48.800;9.540;2022-12-18T08:41:09;-3.50;99.90
17421;DHT22;8828;48.800;9.540;2022-12-18T08:43:38;-3.40;99.90
17421;DHT22;8828;48.800;9.540;2022-12-18T08:46:26;-3.40;99.90
17421;DHT22;8828;48.800;9.540;2022-12-18T08:48:54;-3.30;99.90
17421;DHT22;8828;48.800;9.540;2022-12-18T08:51:23;-3.20;99.90
17421;DHT22;8828;48.800;9.540;2022-12-18T08:53:51;-3.10;99.90
17421;DHT22;8828;48.800;9.540;2022-12-18T08:56:19;-3.00;99.90
17421;DHT22;8828;48.800;9.540;2022-12-18T08:58:47;-2.90;99.90
17421;DHT22;8828;48.800;9.540;2022-12-18T09:01:15;-2.80;99.90
17421;DHT22;8828;48.800;9.540;2022-12-18T09:03:47;-2.70;99.90
17421;DHT22;8828;48.800;9.540;2022-12-18T09:06:16;-2.60;99.90
17421;DHT22;8828;48.800;9.540;2022-12-18T09:08:44;-2.60;99.90
17421;DHT22;8828;48.800;9.540;2022-12-18T09:11:14;-2.40;99.90
17421;DHT22;8828;48.800;9.540;2022-12-18T09:13:42;-2.30;99.90
17421;DHT22;8828;48.800;9.540;2022-12-18T09:16:10;-2.20;99.90
17421;DHT22;8828;48.800;9.540;2022-12-18T09:18:39;-2.20;99.90
17421;DHT22;8828;48.800;9.540;2022-12-18T09:21:10;-2.10;99.90
17421;DHT22;8828;48.800;9.540;2022-12-18T09:23:39;-2.00;99.90
17421;DHT22;8828;48.800;9.540;2022-12-18T09:26:07;-1.90;99.90
17421;DHT22;8828;48.800;9.540;2022-12-18T09:28:35;-1.80;99.90
17421;DHT22;8828;48.800;9.540;2022-12-18T09:31:05;-1.70;99.90
17421;DHT22;8828;48.800;9.540;2022-12-18T09:33:34;-1.60;99.90
17421;DHT22;8828;48.800;9.540;2022-12-18T09:36:05;-1.50;99.90
17421;DHT22;8828;48.800;9.540;2022-12-18T09:38:35;-1.30;99.90
17421;DHT22;8828;48.800;9.540;2022-12-18T09:41:13;-1.30;99.90
17421;DHT22;8828;48.800;9.540;2022-12-18T09:43:45;-1.10;99.90
17421;DHT22;8828;48.800;9.540;2022-12-18T09:46:17;-1.00;99.90
17421;DHT22;8828;48.800;9.540;2022-12-18T09:48:49;-0.90;99.90
17421;DHT22;8828;48.800;9.540;2022-12-18T09:51:20;-0.90;99.90
17421;DHT22;8828;48.800;9.540;2022-12-18T09:53:55;-0.70;99.90
17421;DHT22;8828;48.800;9.540;2022-12-18T09:56:25;-0.60;99.90
17421;DHT22;8828;48.800;9.540;2022-12-18T09:58:58;-0.50;99.90
17421;DHT22;8828;48.800;9.540;2022-12-18T10:01:27;-0.40;99.90
17421;DHT22;8828;48.800;9.540;2022-12-18T10:04:09;-0.30;99.90
17421;DHT22;8828;48.800;9.540;2022-12-18T10:06:41;-0.30;99.90
17421;DHT22;8828;48.800;9.540;2022-12-18T10:09:23;-0.30;99.90
17421;DHT22;8828;48.800;9.540;2022-12-18T10:11:59;-0.20;99.90
17421;DHT22;8828;48.800;9.540;2022-12-18T10:14:36;-0.20;99.90
17421;DHT22;8828;48.800;9.540;2022-12-18T10:17:16;-0.20;99.90
17421;DHT22;8828;48.800;9.540;2022-12-18T10:19:50;-0.10;99.90
17421;DHT22;8828;48.800;9.540;2022-12-18T10:22:28;-0.10;99.90
17421;DHT22;8828;48.800;9.540;2022-12-18T10:25:05;0.00;99.90
17421;DHT22;8828;48.800;9.540;2022-12-18T10:27:37;0.00;99.90
17421;DHT22;8828;48.800;9.540;2022-12-18T10:30:12;0.00;99.90
17421;DHT22;8828;48.800;9.540;2022-12-18T10:32:41;0.10;99.90
17421;DHT22;8828;48.800;9.540;2022-12-18T10:35:18;0.10;99.90
17421;DHT22;8828;48.800;9.540;2022-12-18T10:38:00;0.10;99.90
17421;DHT22;8828;48.800;9.540;2022-12-18T10:40:30;0.20;99.90
17421;DHT22;8828;48.800;9.540;2022-12-18T10:43:05;0.20;99.90
17421;DHT22;8828;48.800;9.540;2022-12-18T10:45:38;0.30;99.90
17421;DHT22;8828;48.800;9.540;2022-12-18T10:48:18;0.30;99.90
17421;DHT22;8828;48.800;9.540;2022-12-18T10:50:48;0.30;99.90
17421;DHT22;8828;48.800;9.540;2022-12-18T10:53:40;0.40;99.90
17421;DHT22;8828;48.800;9.540;2022-12-18T10:56:11;0.50;99.90
17421;DHT22;8828;48.800;9.540;2022-12-18T10:58:40;0.50;99.90
17421;DHT22;8828;48.800;9.540;2022-12-18T11:01:10;0.60;99.90
17421;DHT22;8828;48.800;9.540;2022-12-18T11:03:40;0.60;99.90
17421;DHT22;8828;48.800;9.540;2022-12-18T11:06:10;0.70;99.90
17421;DHT22;8828;48.800;9.540;2022-12-18T11:08:39;0.80;99.90
17421;DHT22;8828;48.800;9.540;2022-12-18T11:11:19;0.90;99.90
17421;DHT22;8828;48.800;9.540;2022-12-18T11:13:59;1.00;99.90
17421;DHT22;8828;48.800;9.540;2022-12-18T11:16:31;1.10;99.90
17421;DHT22;8828;48.800;9.540;2022-12-18T11:19:17;1.20;99.90
17421;DHT22;8828;48.800;9.540;2022-12-18T11:21:48;1.40;99.90
17421;DHT22;8828;48.800;9.540;2022-12-18T11:24:22;1.50;99.90
17421;DHT22;8828;48.800;9.540;2022-12-18T11:26:57;1.70;99.90
17421;DHT22;8828;48.800;9.540;2022-12-18T11:29:32;1.80;99.90
17421;DHT22;8828;48.800;9.540;2022-12-18T11:32:22;1.90;99.90
17421;DHT22;8828;48.800;9.540;2022-12-18T11:34:57;2.00;99.90
17421;DHT22;8828;48.800;9.540;2022-12-18T11:37:27;2.10;99.90
17421;DHT22;8828;48.800;9.540;2022-12-18T11:39:58;2.10;99.90
17421;DHT22;8828;48.800;9.540;2022-12-18T11:42:34;2.20;99.90
17421;DHT22;8828;48.800;9.540;2022-12-18T11:45:24;2.20;99.90
17421;DHT22;8828;48.800;9.540;2022-12-18T11:47:57;2.20;99.90
17421;DHT22;8828;48.800;9.540;2022-12-18T11:50:30;2.20;99.90
17421;DHT22;8828;48.800;9.540;2022-12-18T11:52:59;2.20;99.90
17421;DHT22;8828;48.800;9.540;2022-12-18T11:55:39;2.20;99.90
17421;DHT22;8828;48.800;9.540;2022-12-18T11:58:20;2.20;99.90
17421;DHT22;8828;48.800;9.540;2022-12-18T12:01:11;2.20;99.90
17421;DHT22;8828;48.800;9.540;2022-12-18T12:04:10;2.20;99.90
17421;DHT22;8828;48.800;9.540;2022-12-18T12:06:50;2.30;99.90
17421;DHT22;8828;48.800;9.540;2022-12-18T12:09:32;2.40;99.90
17421;DHT22;8828;48.800;9.540;2022-12-18T12:12:15;2.60;99.90
17421;DHT22;8828;48.800;9.540;2022-12-18T12:14:57;2.70;99.90
17421;DHT22;8828;48.800;9.540;2022-12-18T12:17:38;2.80;99.90
17421;DHT22;8828;48.800;9.540;2022-12-18T12:20:13;2.90;99.90
17421;DHT22;8828;48.800;9.540;2022-12-18T12:22:50;3.00;99.90
17421;DHT22;8828;48.800;9.540;2022-12-18T12:25:35;3.00;99.90
17421;DHT22;8828;48.800;9.540;2022-12-18T12:28:15;2.90;99.90
17421;DHT22;8828;48.800;9.540;2022-12-18T12:30:58;2.90;99.90
17421;DHT22;8828;48.800;9.540;2022-12-18T12:33:37;2.90;99.90
17421;DHT22;8828;48.800;9.540;2022-12-18T12:36:14;2.90;99.90
17421;DHT22;8828;48.800;9.540;2022-12-18T12:38:47;2.90;99.90
17421;DHT22;8828;48.800;9.540;2022-12-18T12:41:19;2.90;99.90
17421;DHT22;8828;48.800;9.540;2022-12-18T12:44:08;2.90;99.90
17421;DHT22;8828;48.800;9.540;2022-12-18T12:46:42;3.00;99.90
17421;DHT22;8828;48.800;9.540;2022-12-18T12:49:14;3.00;99.90
17421;DHT22;8828;48.800;9.540;2022-12-18T12:51:45;3.00;99.90
17421;DHT22;8828;48.800;9.540;2022-12-18T12:54:17;3.00;99.90
17421;DHT22;8828;48.800;9.540;2022-12-18T12:56:51;3.00;99.90
17421;DHT22;8828;48.800;9.540;2022-12-18T12:59:26;3.00;99.90
17421;DHT22;8828;48.800;9.540;2022-12-18T13:01:59;2.90;99.90
17421;DHT22;8828;48.800;9.540;2022-12-18T13:04:34;2.90;99.90
17421;DHT22;8828;48.800;9.540;2022-12-18T13:07:09;2.90;99.90
17421;DHT22;8828;48.800;9.540;2022-12-18T13:10:19;2.80;99.90
17421;DHT22;8828;48.800;9.540;2022-12-18T13:12:54;2.70;99.90
17421;DHT22;8828;48.800;9.540;2022-12-18T13:15:30;2.60;99.90
17421;DHT22;8828;48.800;9.540;2022-12-18T13:18:17;2.50;99.90
17421;DHT22;8828;48.800;9.540;2022-12-18T13:20:49;2.50;99.90
17421;DHT22;8828;48.800;9.540;2022-12-18T13:23:29;2.40;99.90
17421;DHT22;8828;48.800;9.540;2022-12-18T13:25:59;2.40;99.90
17421;DHT22;8828;48.800;9.540;2022-12-18T13:28:51;2.40;99.90
17421;DHT22;8828;48.800;9.540;2022-12-18T13:34:42;2.20;99.90
17421;DHT22;8828;48.800;9.540;2022-12-18T13:37:51;2.20;99.90
17421;DHT22;8828;48.800;9.540;2022-12-18T13:43:32;2.00;99.90
17421;DHT22;8828;48.800;9.540;2022-12-18T13:46:04;2.00;99.90
17421;DHT22;8828;48.800;9.540;2022-12-18T13:48:34;1.90;99.90
17421;DHT22;8828;48.800;9.540;2022-12-18T13:51:06;1.90;99.90
17421;DHT22;8828;48.800;9.540;2022-12-18T13:53:38;1.90;99.90
17421;DHT22;8828;48.800;9.540;2022-12-18T13:56:15;1.80;99.90
17421;DHT22;8828;48.800;9.540;2022-12-18T13:58:44;1.80;99.90
17421;DHT22;8828;48.800;9.540;2022-12-18T14:01:22;1.70;99.90
17421;DHT22;8828;48.800;9.540;2022-12-18T14:04:09;1.60;99.90
17421;DHT22;8828;48.800;9.540;2022-12-18T14:06:39;1.60;99.90
17421;DHT22;8828;48.800;9.540;2022-12-18T14:09:13;1.50;99.90
17421;DHT22;8828;48.800;9.540;2022-12-18T14:11:48;1.40;99.90
17421;DHT22;8828;48.800;9.540;2022-12-18T14:14:18;1.40;99.90
17421;DHT22;8828;48.800;9.540;2022-12-18T14:16:47;1.30;99.90
17421;DHT22;8828;48.800;9.540;2022-12-18T14:19:17;1.20;99.90
17421;DHT22;8828;48.800;9.540;2022-12-18T14:21:47;1.20;99.90
17421;DHT22;8828;48.800;9.540;2022-12-18T14:24:17;1.10;99.90
17421;DHT22;8828;48.800;9.540;2022-12-18T14:26:46;1.00;99.90
17421;DHT22;8828;48.800;9.540;2022-12-18T14:29:22;0.90;99.90
17421;DHT22;8828;48.800;9.540;2022-12-18T14:32:11;0.90;99.90
17421;DHT22;8828;48.800;9.540;2022-12-18T14:34:44;0.80;99.90
17421;DHT22;8828;48.800;9.540;2022-12-18T14:37:15;0.80;99.90
17421;DHT22;8828;48.800;9.540;2022-12-18T14:39:55;0.70;99.90
17421;DHT22;8828;48.800;9.540;2022-12-18T14:42:24;0.60;99.90
17421;DHT22;8828;48.800;9.540;2022-12-18T14:45:33;0.50;99.90
17421;DHT22;8828;48.800;9.540;2022-12-18T14:48:13;0.50;99.90
17421;DHT22;8828;48.800;9.540;2022-12-18T14:50:57;0.40;99.90
17421;DHT22;8828;48.800;9.540;2022-12-18T14:53:48;0.40;99.90
17421;DHT22;8828;48.800;9.540;2022-12-18T14:56:22;0.30;99.90
17421;DHT22;8828;48.800;9.540;2022-12-18T14:58:54;0.20;99.90
17421;DHT22;8828;48.800;9.540;2022-12-18T15:01:25;0.10;99.90
17421;DHT22;8828;48.800;9.540;2022-12-18T15:03:55;0.10;99.90
17421;DHT22;8828;48.800;9.540;2022-12-18T15:06:32;0.00;99.90
17421;DHT22;8828;48.800;9.540;2022-12-18T15:09:04;0.00;99.90
17421;DHT22;8828;48.800;9.540;2022-12-18T15:11:44;-0.10;99.90
17421;DHT22;8828;48.800;9.540;2022-12-18T15:14:38;-0.10;99.90
17421;DHT22;8828;48.800;9.540;2022-12-18T15:17:16;-0.20;99.90
17421;DHT22;8828;48.800;9.540;2022-12-18T15:19:46;-0.30;99.90
17421;DHT22;8828;48.800;9.540;2022-12-18T15:22:24;-0.30;99.90
17421;DHT22;8828;48.800;9.540;2022-12-18T15:24:55;-0.40;99.90
17421;DHT22;8828;48.800;9.540;2022-12-18T15:27:27;-0.50;99.90
17421;DHT22;8828;48.800;9.540;2022-12-18T15:30:19;-0.50;99.90
17421;DHT22;8828;48.800;9.540;2022-12-18T15:32:48;-0.60;99.90
17421;DHT22;8828;48.800;9.540;2022-12-18T15:35:19;-0.60;99.90
17421;DHT22;8828;48.800;9.540;2022-12-18T15:37:49;-0.70;99.90
17421;DHT22;8828;48.800;9.540;2022-12-18T15:40:19;-0.70;99.90
17421;DHT22;8828;48.800;9.540;2022-12-18T15:42:48;-0.70;99.90
17421;DHT22;8828;48.800;9.540;2022-12-18T15:45:34;-0.70;99.90
17421;DHT22;8828;48.800;9.540;2022-12-18T15:48:15;-0.80;99.90
17421;DHT22;8828;48.800;9.540;2022-12-18T15:50:45;-0.80;99.90
17421;DHT22;8828;48.800;9.540;2022-12-18T15:53:13;-0.80;99.90
17421;DHT22;8828;48.800;9.540;2022-12-18T15:55:45;-0.90;99.90
17421;DHT22;8828;48.800;9.540;2022-12-18T15:58:30;-0.90;99.90
17421;DHT22;8828;48.800;9.540;2022-12-18T16:00:59;-0.90;99.90
17421;DHT22;8828;48.800;9.540;2022-12-18T16:03:28;-0.90;99.90
17421;DHT22;8828;48.800;9.540;2022-12-18T16:05:56;-0.90;99.90
17421;DHT22;8828;48.800;9.540;2022-12-18T16:08:28;-1.00;99.90
17421;DHT22;8828;48.800;9.540;2022-12-18T16:10:58;-1.00;99.90
17421;DHT22;8828;48.800;9.540;2022-12-18T16:13:26;-1.00;99.90
17421;DHT22;8828;48.800;9.540;2022-12-18T16:15:54;-1.00;99.90
17421;DHT22;8828;48.800;9.540;2022-12-18T16:18:22;-1.00;99.90
17421;DHT22;8828;48.800;9.540;2022-12-18T16:20:51;-1.10;99.90
17421;DHT22;8828;48.800;9.540;2022-12-18T16:23:19;-1.10;99.90
17421;DHT22;8828;48.800;9.540;2022-12-18T16:25:47;-1.10;99.90
17421;DHT22;8828;48.800;9.540;2022-12-18T16:28:17;-1.10;99.90